Time;durP1;ratioP1;P1;durP2;ratioP2;P2;SDS_P1;SDS_P2;PMS_P1;PMS_P2;Temp;Humidity;BMP_temperature;BMP_pressure;BME280_temperature;BME280_humidity;BME280_pressure;Samples;Min_cycle;Max_cycle;Signal;HPM_P1;HPM_P2
2022/08/05 00:02:20;;;;;;;8.43;5.30;;;21.70;81.80;;;22.14;55.95;95080.19;5023407;28;20476;-60
2022/08/05 00:04:48;;;;;;;6.70;4.80;;;21.60;82.10;;;22.13;56.11;95083.06;5025112;28;20460;-60
2022/08/05 00:07:15;;;;;;;6.17;5.57;;;21.60;82.80;;;22.10;56.01;95078.13;5022633;28;20493;-58
2022/08/05 00:09:43;;;;;;;5.80;5.30;;;21.60;82.70;;;22.07;56.00;95082.03;5021065;28;20452;-59
2022/08/05 00:12:10;;;;;;;6.80;5.30;;;21.60;83.10;;;22.05;56.23;95078.75;5022856;28;20477;-59
2022/08/05 00:14:37;;;;;;;16.60;5.30;;;21.50;83.20;;;22.01;56.26;95077.50;5022875;28;20465;-59
2022/08/05 00:17:04;;;;;;;5.50;5.00;;;21.50;83.60;;;21.99;56.49;95069.66;5024833;28;20481;-60
2022/08/05 00:19:33;;;;;;;12.90;5.60;;;21.50;83.60;;;21.96;56.04;95074.63;5022603;28;20502;-59
2022/08/05 00:22:00;;;;;;;10.43;4.90;;;21.40;83.80;;;21.93;56.41;95081.19;5023137;28;20519;-58
2022/08/05 00:24:28;;;;;;;5.40;4.90;;;21.40;83.70;;;21.91;56.41;95074.44;5018596;28;20460;-60
2022/08/05 00:26:55;;;;;;;7.70;5.90;;;21.40;84.10;;;21.88;56.43;95069.47;5023331;28;20488;-59
2022/08/05 00:29:22;;;;;;;5.30;4.80;;;21.30;84.30;;;21.89;56.32;95068.44;5023131;28;20453;-58
2022/08/05 00:31:49;;;;;;;7.57;5.10;;;21.40;84.30;;;21.88;56.46;95066.81;5022799;28;20480;-60
2022/08/05 00:34:16;;;;;;;5.67;5.27;;;21.30;84.60;;;21.85;56.72;95066.16;5023167;28;20511;-58
2022/08/05 00:36:45;;;;;;;6.00;5.50;;;21.40;85.50;;;21.84;56.83;95072.56;5022422;28;20538;-60
2022/08/05 00:39:12;;;;;;;12.17;6.80;;;21.30;85.50;;;21.81;56.96;95070.28;5019255;28;20461;-59
2022/08/05 00:41:39;;;;;;;6.10;5.17;;;21.30;86.00;;;21.78;56.93;95067.19;5020802;28;20485;-60
2022/08/05 00:44:06;;;;;;;11.63;6.60;;;21.30;86.00;;;21.75;56.95;95060.41;5022418;28;20453;-60
2022/08/05 00:46:34;;;;;;;6.10;5.50;;;21.30;86.40;;;21.73;56.99;95067.78;5021903;28;20965;-58
2022/08/05 00:49:01;;;;;;;6.17;5.60;;;21.20;86.30;;;21.71;57.02;95071.72;5023719;28;20530;-59
2022/08/05 00:51:28;;;;;;;10.03;6.20;;;21.20;86.50;;;21.68;56.98;95059.56;5020038;28;20573;-59
2022/08/05 00:53:57;;;;;;;7.70;7.00;;;21.20;86.60;;;21.66;56.48;95058.97;5025870;28;20458;-60
2022/08/05 00:56:25;;;;;;;11.93;6.30;;;21.10;86.50;;;21.63;57.05;95054.00;5024492;28;20530;-58
2022/08/05 00:58:52;;;;;;;8.97;6.77;;;21.10;86.40;;;21.60;56.91;95065.94;5021825;28;20559;-59
2022/08/05 01:01:19;;;;;;;10.63;7.00;;;21.10;86.50;;;21.58;56.86;95061.81;5020414;28;20480;-58
2022/08/05 01:03:46;;;;;;;6.47;5.90;;;21.10;86.80;;;21.53;56.59;95054.38;5016481;28;20890;-60
2022/08/05 01:06:14;;;;;;;9.47;6.40;;;21.00;86.50;;;21.47;56.80;95060.53;5017259;28;21020;-59
2022/08/05 01:08:41;;;;;;;17.83;5.87;;;21.00;86.50;;;21.42;56.82;95063.00;5018402;28;20493;-60
2022/08/05 01:11:13;;;;;;;8.33;6.00;;;21.00;86.70;;;21.38;56.93;95064.41;5020847;28;20541;-58
2022/08/05 01:13:47;;;;;;;9.87;6.33;;;20.90;86.70;;;21.34;56.82;95068.53;5021886;28;20538;-58
2022/08/05 01:16:25;;;;;;;8.57;6.43;;;20.90;86.80;;;21.30;56.93;95065.41;5023617;28;20531;-60
2022/08/05 01:18:54;;;;;;;5.90;5.30;;;20.80;87.00;;;21.29;57.33;95058.44;5020371;28;20533;-59
2022/08/05 01:21:44;;;;;;;6.80;6.10;;;20.80;87.20;;;21.25;57.39;95055.31;5018803;28;20469;-59
2022/08/05 01:24:26;;;;;;;8.53;6.37;;;20.80;87.10;;;21.18;57.59;95056.31;5020907;28;20461;-59
2022/08/05 01:27:01;;;;;;;8.40;6.73;;;20.70;87.80;;;21.14;57.39;95056.72;5026691;28;21140;-59
2022/08/05 01:29:33;;;;;;;9.33;5.30;;;20.70;88.10;;;21.12;57.50;95061.47;5023983;28;20965;-59
2022/08/05 01:32:02;;;;;;;9.90;6.00;;;20.60;88.20;;;21.10;57.75;95060.84;5022725;28;20476;-59
2022/08/05 01:34:32;;;;;;;9.70;5.40;;;20.60;88.40;;;21.10;57.40;95063.53;5019010;28;20558;-58
2022/08/05 01:37:12;;;;;;;5.97;5.47;;;20.60;88.60;;;21.10;57.48;95062.69;5019801;28;20485;-59
2022/08/05 01:39:39;;;;;;;7.20;6.50;;;20.60;88.80;;;21.07;57.60;95063.13;5020829;28;20530;-60
2022/08/05 01:42:07;;;;;;;9.57;7.03;;;20.60;88.70;;;21.05;57.52;95067.81;5020575;28;20531;-58
2022/08/05 01:44:35;;;;;;;7.30;6.57;;;20.60;88.60;;;21.03;57.73;95070.69;5018604;28;20523;-60
2022/08/05 01:47:03;;;;;;;19.67;7.10;;;20.50;88.90;;;20.98;57.30;95075.00;5023118;28;20901;-59
2022/08/05 01:49:30;;;;;;;6.43;5.83;;;20.50;88.80;;;20.93;57.76;95075.59;5024885;28;20823;-59
2022/08/05 01:52:01;;;;;;;8.17;6.20;;;20.50;89.40;;;20.86;58.02;95061.38;5020212;28;20536;-59
2022/08/05 01:54:33;;;;;;;13.23;6.00;;;20.40;89.70;;;20.83;57.84;95069.78;5020040;28;20453;-57
2022/08/05 01:57:01;;;;;;;7.33;6.33;;;20.40;89.80;;;20.78;57.91;95073.06;5021973;28;20542;-59
2022/08/05 01:59:28;;;;;;;11.83;6.20;;;20.30;90.10;;;20.75;58.22;95068.09;5021013;28;20460;-59
2022/08/05 02:01:57;;;;;;;8.93;6.03;;;20.30;90.20;;;20.71;58.16;95072.19;5018659;28;20766;-59
2022/08/05 02:04:24;;;;;;;7.07;6.37;;;20.20;90.20;;;20.67;58.32;95074.44;5021571;28;20534;-59
2022/08/05 02:06:51;;;;;;;9.03;6.50;;;20.20;90.20;;;20.62;58.06;95073.34;5017095;28;20520;-60
2022/08/05 02:09:18;;;;;;;6.03;5.53;;;20.10;90.40;;;20.57;58.43;95071.25;5022735;28;20448;-60
2022/08/05 02:11:51;;;;;;;7.70;5.93;;;20.10;90.40;;;20.51;58.58;95072.88;5019331;28;20561;-58
2022/08/05 02:14:21;;;;;;;9.53;6.37;;;20.10;90.60;;;20.47;58.76;95078.81;5018482;28;21008;-58
2022/08/05 02:16:50;;;;;;;6.13;5.63;;;20.00;90.70;;;20.46;58.86;95074.50;5018379;28;20480;-59
2022/08/05 02:19:25;;;;;;;10.73;5.37;;;20.00;91.00;;;20.46;58.83;95069.16;5014823;28;20444;-59
2022/08/05 02:21:59;;;;;;;6.57;5.10;;;20.00;91.10;;;20.45;58.96;95068.34;5020716;28;20541;-59
2022/08/05 02:24:31;;;;;;;13.13;6.40;;;20.00;91.10;;;20.48;59.42;95077.78;5019558;28;20520;-59
2022/08/05 02:27:00;;;;;;;6.20;5.60;;;20.00;91.50;;;20.49;59.38;95068.75;5021098;28;20499;-60
2022/08/05 02:29:28;;;;;;;8.27;6.63;;;20.00;91.60;;;20.50;59.37;95065.88;5019741;28;21064;-60
2022/08/05 02:31:57;;;;;;;7.70;6.50;;;20.00;91.80;;;20.49;59.00;95064.22;5020226;28;20588;-59
2022/08/05 02:34:27;;;;;;;14.40;6.17;;;20.00;91.70;;;20.48;58.96;95061.75;5020648;28;21005;-59
2022/08/05 02:36:57;;;;;;;6.53;5.50;;;20.00;91.80;;;20.48;59.04;95064.41;5019832;28;20852;-60
2022/08/05 02:39:24;;;;;;;7.90;5.70;;;20.00;92.00;;;20.46;59.42;95074.50;5019544;28;20511;-58
2022/08/05 02:41:52;;;;;;;7.00;6.03;;;19.90;92.00;;;20.45;59.24;95065.66;5019918;28;20889;-59
2022/08/05 02:44:19;;;;;;;8.80;5.90;;;20.00;92.30;;;20.45;59.50;95070.16;5021358;28;20535;-60
2022/08/05 02:46:47;;;;;;;9.00;5.67;;;20.00;92.20;;;20.45;59.75;95068.34;5019019;28;20532;-59
2022/08/05 02:49:15;;;;;;;11.13;6.47;;;20.00;92.30;;;20.42;59.44;95066.88;5019962;28;20578;-59
2022/08/05 02:51:43;;;;;;;7.17;6.00;;;20.00;92.30;;;20.42;59.46;95066.88;5019035;28;21162;-59
2022/08/05 02:54:11;;;;;;;7.73;7.00;;;20.00;92.60;;;20.44;59.48;95073.88;5020801;28;20448;-59
2022/08/05 02:56:38;;;;;;;15.47;7.43;;;20.00;92.80;;;20.42;59.97;95066.06;5018664;28;20996;-59
2022/08/05 02:59:05;;;;;;;8.67;7.27;;;19.90;92.80;;;20.40;59.85;95068.06;5020867;28;21043;-58
2022/08/05 03:01:32;;;;;;;6.53;6.03;;;19.90;92.70;;;20.37;60.04;95066.63;5021039;28;20476;-60
2022/08/05 03:04:02;;;;;;;7.60;6.80;;;19.90;92.90;;;20.36;60.09;95072.19;5020675;28;20458;-57
2022/08/05 03:06:29;;;;;;;8.97;7.63;;;19.90;93.10;;;20.33;59.93;95068.03;5020499;28;20897;-60
2022/08/05 03:08:59;;;;;;;9.47;8.50;;;19.90;93.10;;;20.33;60.06;95064.56;5020360;28;21056;-60
2022/08/05 03:11:27;;;;;;;14.37;9.43;;;19.90;93.30;;;20.31;60.04;95072.75;5021349;28;20481;-61
2022/08/05 03:13:54;;;;;;;13.87;10.50;;;19.90;93.30;;;20.31;60.31;95072.75;5022380;28;20457;-62
2022/08/05 03:16:21;;;;;;;17.23;10.80;;;19.80;93.20;;;20.29;60.15;95072.13;5020342;28;20493;-61
2022/08/05 03:18:49;;;;;;;13.03;10.80;;;19.80;93.50;;;20.27;60.17;95074.16;5018184;28;20528;-59
2022/08/05 03:21:16;;;;;;;15.13;11.27;;;19.80;93.20;;;20.25;60.33;95078.88;5022086;28;20480;-58
2022/08/05 03:23:43;;;;;;;13.00;11.70;;;19.80;93.20;;;20.23;59.92;95070.22;5022914;28;20531;-58
2022/08/05 03:26:12;;;;;;;12.07;10.90;;;19.80;93.30;;;20.21;59.95;95069.59;5020382;28;20484;-58
2022/08/05 03:28:39;;;;;;;13.43;10.60;;;19.70;93.30;;;20.18;60.45;95070.81;5015755;28;20650;-60
2022/08/05 03:31:07;;;;;;;13.60;9.33;;;19.70;93.30;;;20.17;60.33;95068.31;5018322;28;20480;-60
2022/08/05 03:33:34;;;;;;;25.73;9.83;;;19.70;93.30;;;20.17;59.83;95068.31;5016368;28;20954;-58
2022/08/05 03:36:01;;;;;;;15.13;8.77;;;19.70;93.30;;;20.16;60.08;95069.38;5017119;28;20575;-58
2022/08/05 03:38:28;;;;;;;11.73;8.43;;;19.70;93.40;;;20.14;60.00;95069.56;5020820;28;20449;-60
2022/08/05 03:40:55;;;;;;;16.70;8.40;;;19.70;93.30;;;20.15;60.11;95068.53;5019079;28;20461;-59
2022/08/05 03:43:24;;;;;;;11.93;8.47;;;19.70;93.30;;;20.15;60.09;95070.38;5019125;28;20460;-58
2022/08/05 03:45:52;;;;;;;8.93;7.90;;;19.70;93.40;;;20.14;59.62;95068.72;5019662;28;20479;-59
2022/08/05 03:48:20;;;;;;;15.67;6.60;;;19.70;93.30;;;20.13;59.92;95075.91;5017577;28;20500;-59
2022/08/05 03:50:52;;;;;;;15.90;6.33;;;19.70;93.40;;;20.12;59.70;95071.56;5019641;28;20465;-57
2022/08/05 03:53:26;;;;;;;8.60;6.10;;;19.70;93.30;;;20.11;59.93;95071.78;5021366;28;20543;-59
2022/08/05 03:55:58;;;;;;;10.00;6.60;;;19.70;93.30;;;20.10;59.80;95065.63;5021834;28;20453;-60
2022/08/05 03:58:28;;;;;;;6.60;5.93;;;19.60;93.20;;;20.12;60.07;95068.91;5017503;28;20444;-57
2022/08/05 04:00:55;;;;;;;12.70;6.20;;;19.70;93.20;;;20.12;60.26;95068.09;5020689;28;20523;-60
2022/08/05 04:03:24;;;;;;;7.30;5.67;;;19.70;93.50;;;20.16;59.95;95064.84;5020606;28;20449;-60
2022/08/05 04:05:51;;;;;;;7.33;6.60;;;19.70;93.60;;;20.22;59.66;95074.75;5019996;28;20965;-58
2022/08/05 04:08:18;;;;;;;13.50;6.47;;;19.70;93.40;;;20.26;59.60;95069.00;5017586;28;21018;-59
2022/08/05 04:10:45;;;;;;;8.00;6.00;;;19.80;93.30;;;20.32;59.25;95069.06;5020208;28;20514;-59
2022/08/05 04:13:12;;;;;;;6.07;5.40;;;19.80;93.20;;;20.36;59.17;95072.19;5018834;28;20449;-61
2022/08/05 04:15:41;;;;;;;8.43;6.20;;;19.90;93.20;;;20.40;59.42;95068.91;5019155;28;20895;-60
2022/08/05 04:18:08;;;;;;;13.20;6.50;;;19.90;93.20;;;20.44;59.38;95077.34;5017785;28;20480;-59
2022/08/05 04:20:35;;;;;;;6.30;5.70;;;20.00;93.20;;;20.47;59.15;95074.28;5019814;28;20503;-59
2022/08/05 04:23:03;;;;;;;10.87;6.63;;;20.00;93.00;;;20.49;59.03;95074.91;5020140;28;20523;-59
2022/08/05 04:25:30;;;;;;;8.27;6.23;;;20.00;93.10;;;20.53;58.93;95070.03;5020559;28;20856;-59
2022/08/05 04:27:57;;;;;;;9.77;5.97;;;20.00;92.90;;;20.56;59.02;95070.44;5013859;28;20994;-60
2022/08/05 04:30:25;;;;;;;19.47;5.90;;;20.10;92.80;;;20.59;58.91;95067.38;5020765;28;20515;-57
2022/08/05 04:32:53;;;;;;;16.03;6.40;;;20.10;92.70;;;20.62;58.76;95058.16;5017807;28;20542;-58
2022/08/05 04:35:21;;;;;;;18.03;7.13;;;20.10;92.60;;;20.68;58.81;95069.91;5018038;28;20459;-59
2022/08/05 04:37:48;;;;;;;7.10;6.27;;;20.20;92.70;;;20.74;58.76;95066.44;5020268;28;20656;-59
2022/08/05 04:40:16;;;;;;;7.90;6.77;;;20.20;92.60;;;20.81;58.42;95061.16;5015249;28;20479;-59
2022/08/05 04:42:43;;;;;;;8.90;6.00;;;20.30;92.40;;;20.88;58.19;95067.34;5026838;28;20560;-59
2022/08/05 04:45:11;;;;;;;11.43;7.63;;;20.30;92.20;;;20.91;58.38;95065.09;5019851;28;21077;-59
2022/08/05 04:47:38;;;;;;;9.60;7.57;;;20.40;92.20;;;20.95;58.40;95062.84;5020468;28;20487;-60
2022/08/05 04:50:08;;;;;;;10.57;7.90;;;20.40;92.20;;;21.00;58.10;95065.75;5024465;28;20515;-60
2022/08/05 04:52:35;;;;;;;11.90;8.20;;;20.50;92.30;;;21.04;58.10;95064.31;5021511;28;20542;-59
2022/08/05 04:55:02;;;;;;;16.20;8.03;;;20.50;92.20;;;21.08;57.94;95062.88;5023690;28;20566;-58
2022/08/05 04:57:29;;;;;;;8.73;7.83;;;20.60;92.20;;;21.13;58.10;95068.47;5024784;28;20484;-59
2022/08/05 04:59:57;;;;;;;14.53;9.73;;;20.60;92.10;;;21.19;58.00;95066.81;5021343;28;20495;-59
2022/08/05 05:02:24;;;;;;;14.37;9.50;;;20.70;92.20;;;21.24;57.88;95063.53;5022574;28;21040;-59
2022/08/05 05:04:51;;;;;;;8.87;6.20;;;20.70;92.00;;;21.28;58.00;95067.47;5023878;28;20519;-59
2022/08/05 05:07:20;;;;;;;8.33;7.40;;;20.70;91.90;;;21.30;57.51;95066.25;5022108;28;20566;-61
2022/08/05 05:09:47;;;;;;;28.23;8.70;;;20.80;91.40;;;21.34;57.34;95068.53;5023692;28;20492;-58
2022/08/05 05:12:14;;;;;;;24.63;9.80;;;20.80;91.40;;;21.36;57.09;95066.47;5023386;28;20688;-59
2022/08/05 05:14:41;;;;;;;9.70;6.93;;;20.90;91.40;;;21.39;56.98;95074.91;5021858;28;20448;-59
2022/08/05 05:17:08;;;;;;;33.53;7.53;;;20.90;91.20;;;21.43;56.82;95060.09;5022092;28;20481;-59
2022/08/05 05:19:36;;;;;;;10.00;6.10;;;20.90;91.10;;;21.48;56.85;95068.34;5022663;28;20534;-59
2022/08/05 05:22:03;;;;;;;19.13;7.30;;;21.00;91.00;;;21.51;56.71;95059.13;5016651;28;20476;-58
2022/08/05 05:24:31;;;;;;;12.63;7.80;;;21.00;90.90;;;21.57;56.79;95062.84;5022658;28;20460;-59
2022/08/05 05:26:59;;;;;;;12.30;7.10;;;21.00;91.00;;;21.62;56.56;95063.88;5024743;28;20488;-61
2022/08/05 05:29:26;;;;;;;16.17;7.60;;;21.10;90.90;;;21.73;56.53;95064.31;5020984;28;20494;-60
2022/08/05 05:31:55;;;;;;;8.70;6.73;;;21.20;90.80;;;21.82;56.02;95069.25;5022520;28;20969;-60
2022/08/05 05:34:22;;;;;;;19.40;7.40;;;21.30;90.50;;;21.94;55.90;95065.97;5018947;28;20524;-60
2022/08/05 05:36:50;;;;;;;18.17;7.70;;;21.30;90.10;;;22.08;55.82;95059.59;5023797;28;20470;-58
2022/08/05 05:39:17;;;;;;;16.40;6.23;;;21.50;90.10;;;22.26;55.14;95058.13;5023983;28;20770;-58
2022/08/05 05:41:46;;;;;;;17.60;6.67;;;21.60;90.10;;;22.48;55.23;95061.41;5019647;28;21028;-60
2022/08/05 05:44:13;;;;;;;11.83;6.83;;;21.80;90.00;;;22.70;54.47;95056.63;5022798;28;20479;-60
2022/08/05 05:46:40;;;;;;;15.60;6.73;;;22.00;88.30;;;22.89;54.25;95066.44;5024043;28;21066;-59
2022/08/05 05:49:07;;;;;;;8.00;6.83;;;22.20;87.90;;;23.09;53.77;95068.28;5022347;28;21070;-58
2022/08/05 05:51:35;;;;;;;11.10;6.60;;;22.40;87.20;;;23.32;53.70;95065.06;5020793;28;20530;-60
2022/08/05 05:54:02;;;;;;;8.93;6.90;;;22.60;86.50;;;23.54;52.82;95057.50;5022930;28;20516;-58
2022/08/05 05:56:30;;;;;;;6.73;6.03;;;22.80;85.70;;;23.76;52.11;95065.22;5023258;28;20477;-59
2022/08/05 05:58:59;;;;;;;10.90;6.53;;;23.00;85.10;;;23.98;51.80;95065.69;5023561;28;20470;-59
2022/08/05 06:01:26;;;;;;;7.50;6.80;;;23.30;84.60;;;24.16;52.04;95067.63;5022493;28;20877;-59
2022/08/05 06:03:53;;;;;;;11.33;5.87;;;23.50;83.50;;;24.31;51.14;95065.41;5021824;28;20452;-59
2022/08/05 06:06:20;;;;;;;12.40;5.50;;;23.60;82.90;;;24.52;50.77;95068.72;5019425;28;20465;-59
2022/08/05 06:08:47;;;;;;;10.20;5.37;;;23.80;82.20;;;24.71;51.10;95069.63;5023384;28;20691;-59
2022/08/05 06:11:15;;;;;;;11.67;5.83;;;24.00;81.50;;;24.94;50.32;95068.97;5019827;28;20526;-59
2022/08/05 06:13:42;;;;;;;7.90;6.67;;;24.20;80.90;;;25.16;49.99;95065.78;5022578;28;20456;-61
2022/08/05 06:16:10;;;;;;;14.53;5.60;;;24.40;80.00;;;25.36;49.72;95066.38;5020158;28;20473;-60
2022/08/05 06:18:38;;;;;;;9.53;5.90;;;24.60;79.00;;;25.57;49.41;95073.13;5021073;28;20529;-60
2022/08/05 06:21:05;;;;;;;9.03;6.40;;;24.80;78.40;;;25.77;48.90;95061.25;5020536;28;20480;-59
2022/08/05 06:23:32;;;;;;;10.00;6.20;;;25.00;77.40;;;25.95;48.68;95063.06;5022487;28;20452;-60
2022/08/05 06:25:59;;;;;;;7.60;5.97;;;25.20;76.40;;;26.16;47.93;95068.97;5021748;28;20452;-59
2022/08/05 06:28:27;;;;;;;8.77;5.30;;;25.40;75.20;;;26.36;47.52;95069.47;5022604;28;20812;-60
2022/08/05 06:30:54;;;;;;;8.17;6.23;;;25.60;74.70;;;26.58;47.19;95066.19;5018616;28;20502;-59
2022/08/05 06:33:22;;;;;;;8.40;6.83;;;25.80;73.10;;;26.77;46.62;95069.59;5019835;28;20992;-59
2022/08/05 06:35:50;;;;;;;13.00;6.23;;;26.00;72.00;;;26.95;46.49;95057.84;5021326;28;20530;-58
2022/08/05 06:38:17;;;;;;;12.57;6.30;;;26.20;71.50;;;27.14;46.00;95063.88;5022649;28;20459;-59
2022/08/05 06:40:44;;;;;;;11.60;6.70;;;26.30;70.60;;;27.33;45.56;95067.28;5019657;28;20506;-60
2022/08/05 06:43:11;;;;;;;19.93;6.50;;;26.60;69.60;;;27.49;44.90;95061.09;5020182;28;20461;-60
2022/08/05 06:45:39;;;;;;;11.17;5.13;;;26.70;68.30;;;27.66;45.12;95063.03;5024078;28;20884;-60
2022/08/05 06:48:06;;;;;;;6.80;5.53;;;26.90;68.00;;;27.86;44.73;95059.88;5019843;28;20481;-59
2022/08/05 06:50:34;;;;;;;8.90;5.50;;;27.00;66.80;;;28.05;44.24;95063.19;5020918;28;20520;-61
2022/08/05 06:53:02;;;;;;;11.00;6.27;;;27.20;66.50;;;28.25;44.29;95057.28;5025302;28;20559;-60
2022/08/05 06:55:29;;;;;;;9.57;5.67;;;27.50;65.70;;;28.43;43.31;95057.03;5017180;28;20527;-59
2022/08/05 06:57:56;;;;;;;10.20;5.83;;;27.60;64.60;;;28.61;43.03;95053.28;5022726;28;20948;-60
2022/08/05 07:00:23;;;;;;;6.77;5.40;;;27.80;64.10;;;28.83;43.05;95062.50;5019241;28;20464;-61
2022/08/05 07:02:51;;;;;;;10.63;5.27;;;28.00;63.40;;;29.04;43.16;95058.16;5018698;28;20549;-61
2022/08/05 07:05:18;;;;;;;15.27;4.97;;;28.20;62.70;;;29.24;42.79;95054.94;5023353;28;21050;-61
2022/08/05 07:07:47;;;;;;;7.30;5.87;;;28.40;62.20;;;29.41;41.82;95058.38;5022696;28;20472;-59
2022/08/05 07:10:14;;;;;;;6.77;5.03;;;28.60;61.20;;;29.54;41.59;95056.34;5021923;28;20495;-60
2022/08/05 07:18:11;;;;;;;10.70;5.20;;;29.00;59.40;;;30.01;41.17;95056.56;5022315;28;20427;-59
2022/08/05 07:20:38;;;;;;;6.03;4.93;;;29.20;59.00;;;30.25;40.67;95066.25;5025539;28;20445;-63
2022/08/05 07:23:07;;;;;;;11.77;4.90;;;29.40;58.80;;;30.46;40.25;95067.25;5025014;28;20472;-60
2022/08/05 07:25:34;;;;;;;9.07;5.87;;;29.60;58.10;;;30.66;39.92;95061.97;5024922;28;20206;-59
2022/08/05 07:28:02;;;;;;;10.90;4.97;;;29.80;57.50;;;30.84;39.89;95062.59;5024070;28;20604;-59
2022/08/05 07:30:30;;;;;;;20.87;5.40;;;30.00;57.10;;;30.96;39.14;95060.50;5025327;28;20610;-59
2022/08/05 07:32:57;;;;;;;9.10;5.60;;;30.10;56.50;;;31.15;39.05;95065.50;5022925;28;20764;-59
2022/08/05 07:35:25;;;;;;;9.43;6.53;;;30.30;56.60;;;31.35;38.46;95053.91;5023566;28;20666;-61
2022/08/05 07:37:52;;;;;;;11.27;5.43;;;30.50;55.50;;;31.57;38.63;95056.44;5021559;28;20225;-59
2022/08/05 07:40:21;;;;;;;7.80;5.70;;;30.70;55.70;;;31.75;38.31;95055.94;5025050;28;20193;-60
2022/08/05 07:42:49;;;;;;;30.23;5.30;;;30.90;54.40;;;31.94;38.04;95058.16;5024984;28;20316;-59
2022/08/05 07:45:16;;;;;;;5.77;4.80;;;31.00;54.60;;;32.14;38.02;95058.19;5025019;28;20260;-61
2022/08/05 07:47:43;;;;;;;14.23;5.63;;;31.30;54.10;;;32.28;37.66;95050.28;5025205;28;20218;-61
2022/08/05 07:50:10;;;;;;;14.07;5.40;;;31.40;53.30;;;32.34;36.79;95053.84;5024936;28;20247;-60
2022/08/05 07:52:39;;;;;;;11.63;5.20;;;31.50;52.10;;;32.29;36.56;95051.13;5024991;28;20221;-60
2022/08/05 07:55:07;;;;;;;14.18;5.13;;;31.50;51.80;;;32.11;36.79;95053.28;5022189;28;20320;-59
2022/08/05 07:57:35;;;;;;;4.63;4.27;;;31.40;51.60;;;32.03;36.41;95051.09;5022285;28;20217;-60
2022/08/05 08:00:04;;;;;;;6.57;5.03;;;31.30;51.50;;;32.01;36.73;95050.56;5022398;28;20263;-60
2022/08/05 08:02:32;;;;;;;5.22;4.72;;;31.20;51.60;;;32.17;36.64;95052.19;5020498;28;20696;-59
2022/08/05 08:04:59;;;;;;;9.80;4.80;;;31.30;51.60;;;32.43;36.65;95051.41;5025014;28;20293;-59
2022/08/05 08:07:26;;;;;;;9.07;5.07;;;31.50;51.70;;;32.59;35.83;95052.19;5024173;28;20213;-60
2022/08/05 08:09:53;;;;;;;6.57;5.23;;;31.70;50.80;;;32.63;35.36;95043.19;5020464;28;20606;-61
2022/08/05 08:12:21;;;;;;;13.73;4.75;;;31.80;50.50;;;32.69;35.47;95044.03;5021292;28;20221;-60
2022/08/05 08:14:50;;;;;;;8.75;5.47;;;31.80;50.20;;;32.89;35.34;95040.44;5024426;28;20601;-60
2022/08/05 08:17:17;;;;;;;15.10;5.00;;;32.00;49.90;;;33.09;35.07;95044.19;5027759;28;20275;-60
2022/08/05 08:19:44;;;;;;;9.35;5.53;;;32.20;49.70;;;33.21;35.04;95040.06;5027499;28;20213;-60
2022/08/05 08:22:12;;;;;;;6.32;5.15;;;32.30;49.40;;;33.27;34.55;95049.06;5028392;28;20217;-65
2022/08/05 08:24:39;;;;;;;14.98;5.40;;;32.40;49.10;;;33.46;35.01;95049.22;5025066;28;20198;-60
2022/08/05 08:27:07;;;;;;;5.10;4.63;;;32.50;49.30;;;33.68;34.64;95045.28;5027565;28;20224;-60
2022/08/05 08:29:34;;;;;;;6.72;5.10;;;32.80;49.00;;;33.78;33.74;95045.28;5022641;28;20667;-59
2022/08/05 08:32:03;;;;;;;14.50;5.07;;;32.90;48.00;;;33.94;34.40;95041.34;5018852;28;20275;-59
2022/08/05 08:34:31;;;;;;;22.63;4.88;;;33.10;48.10;;;34.24;34.13;95044.16;5018206;28;20658;-60
2022/08/05 08:36:58;;;;;;;13.57;4.90;;;33.30;47.90;;;34.40;34.01;95044.84;5018945;28;20222;-60
2022/08/05 08:39:26;;;;;;;12.05;4.38;;;33.50;47.30;;;34.66;32.91;95039.94;5020326;28;20643;-59
2022/08/05 08:41:55;;;;;;;15.50;4.47;;;33.70;46.90;;;34.99;33.12;95037.44;5023126;28;20677;-59
2022/08/05 08:44:24;;;;;;;5.22;4.03;;;34.00;47.40;;;35.29;32.92;95038.19;5021099;28;20256;-61
2022/08/05 08:46:52;;;;;;;5.38;4.68;;;34.30;46.40;;;35.59;32.00;95034.25;5023265;28;20240;-60
2022/08/05 08:49:21;;;;;;;5.05;4.05;;;34.60;45.50;;;35.90;31.83;95036.59;5019700;28;20268;-61
2022/08/05 08:51:50;;;;;;;4.47;4.07;;;34.90;45.10;;;36.20;30.92;95034.47;5024592;28;20221;-60
2022/08/05 08:54:17;;;;;;;6.13;4.53;;;35.20;44.50;;;36.48;30.67;95034.59;5025579;28;20288;-62
2022/08/05 08:56:45;;;;;;;12.10;4.28;;;35.50;44.00;;;36.70;30.97;95034.75;5020004;28;20225;-60
2022/08/05 08:59:12;;;;;;;11.13;4.20;;;35.80;43.10;;;36.92;30.60;95033.25;5022466;28;20224;-64
2022/08/05 09:01:41;;;;;;;8.07;4.07;;;36.00;43.10;;;37.02;30.45;95030.31;5024588;28;20259;-60
2022/08/05 09:04:09;;;;;;;5.55;3.72;;;36.10;42.50;;;37.13;28.20;95033.66;5024512;28;20197;-58
2022/08/05 09:06:39;;;;;;;3.60;3.40;;;36.20;40.30;;;37.18;28.85;95028.06;5021186;28;20229;-61
2022/08/05 09:09:06;;;;;;;3.97;3.67;;;36.30;40.80;;;37.25;28.85;95022.22;5024335;28;20232;-59
2022/08/05 09:11:35;;;;;;;4.43;3.50;;;36.40;40.50;;;37.36;29.08;95022.81;5024878;28;20725;-59
2022/08/05 09:14:02;;;;;;;10.13;3.95;;;36.40;40.70;;;37.28;28.36;95018.88;5023881;28;20351;-60
2022/08/05 09:16:30;;;;;;;16.50;3.85;;;36.40;40.10;;;37.33;28.70;95010.53;5025424;28;20247;-59
2022/08/05 09:18:57;;;;;;;7.60;4.07;;;36.50;39.90;;;37.47;28.70;95008.56;5024823;28;20233;-60
2022/08/05 09:21:27;;;;;;;3.70;3.40;;;36.60;40.00;;;37.62;28.56;95006.63;5024989;28;20637;-59
2022/08/05 09:24:07;;;;;;;5.88;3.20;;;36.70;39.60;;;37.76;27.68;95001.91;5022329;28;20202;-60
2022/08/05 09:26:35;;;;;;;3.97;2.55;;;36.80;39.00;;;37.77;27.37;94995.31;5023276;28;20232;-62
2022/08/05 09:29:04;;;;;;;11.82;2.92;;;36.90;38.40;;;37.60;26.88;94989.63;5025785;28;20205;-60
2022/08/05 09:31:32;;;;;;;3.38;3.05;;;36.80;37.70;;;37.52;27.13;94996.66;5021682;28;20671;-61
2022/08/05 09:34:01;;;;;;;3.00;2.72;;;36.70;37.60;;;37.37;27.01;94999.72;5022436;28;20203;-60
2022/08/05 09:36:45;;;;;;;2.80;2.60;;;36.60;37.50;;;37.17;27.02;94987.22;5023716;28;20239;-60
2022/08/05 09:39:16;;;;;;;3.33;3.03;;;36.40;37.00;;;37.02;27.45;94983.69;5024119;28;20288;-61
2022/08/05 09:41:57;;;;;;;4.68;3.40;;;36.30;37.50;;;36.91;26.41;94977.59;5024836;28;20225;-60
2022/08/05 09:44:38;;;;;;;3.05;2.50;;;36.10;37.00;;;36.89;26.65;94984.50;5022941;28;20236;-63
2022/08/05 09:47:10;;;;;;;3.25;2.65;;;36.00;37.20;;;36.94;27.42;94982.47;5021568;28;20225;-60
2022/08/05 09:49:42;;;;;;;2.97;2.78;;;36.10;37.30;;;37.05;26.54;94974.84;5023686;28;20227;-60
2022/08/05 09:52:24;;;;;;;7.38;2.65;;;36.10;37.30;;;37.21;25.19;94971.78;5021862;28;20454;-61
2022/08/05 09:54:59;;;;;;;3.03;2.67;;;36.30;35.40;;;37.21;26.15;94974.53;5024011;28;20590;-61
2022/08/05 09:57:35;;;;;;;2.88;2.67;;;36.30;36.10;;;37.13;26.32;94971.38;5021720;28;20312;-60
2022/08/05 10:00:10;;;;;;;2.80;2.60;;;36.30;36.40;;;37.13;26.36;94967.84;5023210;28;20739;-62
2022/08/05 10:02:41;;;;;;;2.80;2.60;;;36.30;36.60;;;37.28;26.99;94969.50;5019960;28;20229;-60
2022/08/05 10:05:11;;;;;;;11.98;3.15;;;36.30;37.10;;;37.46;26.32;94960.31;5020540;28;20202;-61
2022/08/05 10:07:55;;;;;;;3.30;2.92;;;36.50;36.40;;;37.59;26.04;94961.38;5023252;28;20300;-60
2022/08/05 10:10:26;;;;;;;3.30;3.10;;;36.70;35.90;;;37.57;25.89;94955.41;5022252;28;20271;-59
2022/08/05 10:12:55;;;;;;;3.40;3.10;;;36.70;35.70;;;37.37;26.20;94955.84;5023021;28;20730;-64
2022/08/05 10:15:25;;;;;;;3.75;2.67;;;36.60;35.50;;;37.07;25.65;94944.38;5019861;28;20464;-60
2022/08/05 10:18:14;;;;;;;3.58;3.13;;;36.40;35.60;;;36.84;25.66;94948.97;5024143;28;20328;-61
2022/08/05 10:20:45;;;;;;;8.20;3.65;;;36.20;35.60;;;36.83;26.69;94944.63;5017460;28;20209;-61
2022/08/05 10:23:14;;;;;;;8.70;3.72;;;36.10;36.40;;;36.70;25.96;94946.19;5022077;28;20213;-60
2022/08/05 10:25:42;;;;;;;5.90;3.92;;;36.00;36.10;;;36.39;26.46;94950.34;5021067;28;20213;-61
2022/08/05 10:28:10;;;;;;;6.53;3.83;;;35.70;35.60;;;36.08;26.70;94937.19;5017922;28;20213;-60